Terminal Aerodrome Forecast
Issued by NWS

Current Version | Previous Version | Text Only | Print | Product List | Glossary Off
Versions: 1 2 3 4 5 6 7 8 9 10 11 12 13 14 15 16 17 18 19 20 21 22

491
FTUS44 KOHX 110753 CCA
TAFCKV
TAF COR
KCKV 110753Z 1108/1206 14009KT P6SM OVC060
     FM111000 17007KT P6SM BKN050 WS020/20035KT
     FM111500 17010G20KT P6SM BKN050
     FM112300 18010G20KT P6SM VCSH OVC035
     FM120100 19011G20KT 5SM -RA OVC015
     FM120300 19013G20KT 2SM RA OVC007=

USA.gov is the U.S. government's official web portal to all federal, state and local government web resources and services.